Time;durP1;ratioP1;P1;durP2;ratioP2;P2;SDS_P1;SDS_P2;PMS_P1;PMS_P2;Temp;Humidity;BMP_temperature;BMP_pressure;BME280_temperature;BME280_humidity;BME280_pressure;Samples;Min_cycle;Max_cycle;Signal;HPM_P1;HPM_P2
2023/02/04 00:00:17;;;;;;;0.50;0.50;;;;;;;6.21;94.15;98096.19;29395;241;63009;-62
2023/02/04 00:00:51;;;;;;;0.60;0.60;;;;;;;6.21;94.29;98098.88;29395;258;63009;-59
2023/02/04 00:01:23;;;;;;;0.52;0.52;;;;;;;6.22;94.42;98095.13;29394;277;64013;-61
2023/02/04 00:01:54;;;;;;;0.70;0.70;;;;;;;6.21;94.41;98090.78;29395;268;63005;-56
2023/02/04 00:02:26;;;;;;;0.73;0.73;;;;;;;6.19;94.75;98088.31;29394;223;64009;-58
2023/02/04 00:02:57;;;;;;;0.60;0.60;;;;;;;6.19;94.99;98098.28;29395;242;63010;-61
2023/02/04 00:03:32;;;;;;;0.93;0.93;;;;;;;6.19;95.20;98101.81;29395;224;63023;-62
2023/02/04 00:04:03;;;;;;;0.50;0.50;;;;;;;6.17;95.24;98090.44;29395;312;63004;-61
2023/02/04 00:04:34;;;;;;;0.60;0.60;;;;;;;6.17;95.16;98095.00;29395;239;63008;-63
2023/02/04 00:05:07;;;;;;;0.60;0.60;;;;;;;6.17;95.17;98089.63;29395;299;63010;-63
2023/02/04 00:05:38;;;;;;;0.60;0.55;;;;;;;6.18;95.28;98096.66;29395;283;63009;-63
2023/02/04 00:06:09;;;;;;;0.77;0.70;;;;;;;6.19;95.35;98082.94;29394;223;64005;-59
2023/02/04 00:06:41;;;;;;;0.50;0.50;;;;;;;6.18;95.54;98091.25;29394;212;64014;-56
2023/02/04 00:07:12;;;;;;;0.65;0.65;;;;;;;6.19;95.42;98087.50;29395;203;63010;-59
2023/02/04 00:07:43;;;;;;;0.60;0.60;;;;;;;6.18;95.70;98091.25;29395;227;63009;-58
2023/02/04 00:08:15;;;;;;;0.70;0.70;;;;;;;6.17;95.66;98090.44;29395;274;63005;-60
2023/02/04 00:08:46;;;;;;;0.50;0.50;;;;;;;6.16;95.80;98093.38;29395;274;63009;-59
2023/02/04 00:09:17;;;;;;;0.80;0.80;;;;;;;6.15;95.90;98086.34;29395;247;63005;-59
2023/02/04 00:09:48;;;;;;;1.05;1.05;;;;;;;6.15;95.73;98092.53;29395;289;63009;-71
2023/02/04 00:10:20;;;;;;;0.50;0.50;;;;;;;6.15;96.11;98086.34;29395;221;63004;-56
2023/02/04 00:10:51;;;;;;;0.50;0.50;;;;;;;6.14;96.08;98092.78;29395;275;63009;-57
2023/02/04 00:11:22;;;;;;;1.45;0.73;;;;;;;6.14;96.04;98079.31;29395;196;63004;-61
2023/02/04 00:11:57;;;;;;;0.50;0.50;;;;;;;6.14;96.10;98084.69;29394;267;64013;-59
2023/02/04 00:12:32;;;;;;;0.70;0.70;;;;;;;6.16;96.33;98077.19;29395;218;63004;-67
2023/02/04 00:13:04;;;;;;;0.60;0.60;;;;;;;6.14;96.24;98074.72;29395;251;63009;-63
2023/02/04 00:13:35;;;;;;;0.50;0.50;;;;;;;6.13;96.41;98069.56;29394;213;64005;-62
2023/02/04 00:14:06;;;;;;;0.55;0.55;;;;;;;6.12;96.46;98070.63;29395;205;63009;-65
2023/02/04 00:14:37;;;;;;;0.70;0.70;;;;;;;6.12;96.47;98065.25;29395;256;63005;-59
2023/02/04 00:15:09;;;;;;;0.70;0.70;;;;;;;6.14;96.32;98065.81;29395;199;63009;-57
2023/02/04 00:15:41;;;;;;;0.50;0.50;;;;;;;6.14;96.19;98068.53;29395;216;63005;-58
2023/02/04 00:16:12;;;;;;;0.60;0.60;;;;;;;6.12;96.55;98067.94;29395;232;63009;-60
2023/02/04 00:16:43;;;;;;;0.60;0.60;;;;;;;6.13;96.28;98069.56;29395;222;63005;-57
2023/02/04 00:17:14;;;;;;;0.50;0.50;;;;;;;6.13;96.23;98072.28;29394;300;64013;-66
2023/02/04 00:17:46;;;;;;;0.50;0.50;;;;;;;6.10;96.50;98061.97;29395;215;63004;-59
2023/02/04 00:18:17;;;;;;;0.50;0.50;;;;;;;6.09;96.33;98076.50;29394;218;64013;-60
2023/02/04 00:18:48;;;;;;;0.65;0.65;;;;;;;6.10;96.49;98072.75;29395;299;63004;-57
2023/02/04 00:19:20;;;;;;;0.50;0.50;;;;;;;6.07;96.57;98071.34;29395;229;63009;-58
2023/02/04 00:19:51;;;;;;;0.60;0.60;;;;;;;6.07;96.65;98073.22;29395;296;63004;-60
2023/02/04 00:20:23;;;;;;;0.73;0.73;;;;;;;6.09;96.85;98076.50;29395;309;63008;-60
2023/02/04 00:20:54;;;;;;;0.50;0.50;;;;;;;6.09;96.45;98074.63;29395;216;63005;-66
2023/02/04 00:21:26;;;;;;;0.82;0.82;;;;;;;6.11;96.66;98069.00;29395;244;63009;-57
2023/02/04 00:21:57;;;;;;;0.70;0.70;;;;;;;6.12;96.40;98073.31;29395;216;63005;-54
2023/02/04 00:22:29;;;;;;;0.50;0.50;;;;;;;6.12;96.46;98071.44;29395;221;63009;-58
2023/02/04 00:23:00;;;;;;;0.60;0.60;;;;;;;6.13;96.55;98072.28;29395;200;63005;-60
2023/02/04 00:23:31;;;;;;;0.50;0.50;;;;;;;6.13;96.37;98072.28;29394;210;64030;-58
2023/02/04 00:24:03;;;;;;;0.60;0.60;;;;;;;6.13;96.14;98077.66;29395;239;63011;-58
2023/02/04 00:24:35;;;;;;;0.50;0.50;;;;;;;6.13;96.37;98073.09;29395;202;63009;-61
2023/02/04 00:25:07;;;;;;;0.80;0.73;;;;;;;6.14;96.30;98082.00;29395;214;63004;-60
2023/02/04 00:25:39;;;;;;;0.65;0.65;;;;;;;6.13;96.35;98074.97;29395;225;63009;-59
2023/02/04 00:26:11;;;;;;;0.50;0.50;;;;;;;6.11;95.98;98079.78;29395;225;63004;-55
2023/02/04 00:26:42;;;;;;;0.60;0.60;;;;;;;6.13;96.09;98072.28;29395;281;63009;-57
2023/02/04 00:27:13;;;;;;;0.50;0.50;;;;;;;6.13;95.87;98077.66;29395;203;63004;-56
2023/02/04 00:27:44;;;;;;;0.70;0.70;;;;;;;6.12;95.96;98076.03;29395;222;63008;-60
2023/02/04 00:28:16;;;;;;;0.50;0.50;;;;;;;6.10;96.04;98070.03;29395;275;63005;-62
2023/02/04 00:28:47;;;;;;;0.50;0.50;;;;;;;6.12;96.07;98081.41;29394;259;64014;-65
2023/02/04 00:29:19;;;;;;;0.50;0.50;;;;;;;6.10;96.14;98072.75;29395;204;63005;-59
2023/02/04 00:29:50;;;;;;;0.55;0.55;;;;;;;6.11;96.26;98079.78;29395;229;63009;-57
2023/02/04 00:30:21;;;;;;;0.50;0.50;;;;;;;6.11;96.20;98075.19;29395;242;63005;-57
2023/02/04 00:30:53;;;;;;;0.50;0.50;;;;;;;6.11;96.42;98090.53;29395;271;63009;-59
2023/02/04 00:31:25;;;;;;;0.50;0.50;;;;;;;6.11;96.06;98077.06;29395;234;63004;-56
2023/02/04 00:31:56;;;;;;;0.57;0.57;;;;;;;6.13;96.06;98083.06;29395;320;63009;-62
2023/02/04 00:32:28;;;;;;;0.50;0.50;;;;;;;6.11;95.81;98077.06;29395;279;63014;-57
2023/02/04 00:32:59;;;;;;;0.50;0.50;;;;;;;6.11;95.37;98082.47;29395;264;63021;-60
2023/02/04 00:33:30;;;;;;;0.50;0.50;;;;;;;6.12;95.22;98076.84;29395;197;63004;-58
2023/02/04 00:34:02;;;;;;;0.70;0.70;;;;;;;6.13;95.03;98083.88;29394;253;64013;-59
2023/02/04 00:34:33;;;;;;;0.60;0.60;;;;;;;6.15;95.30;98086.34;29395;220;63004;-60
2023/02/04 00:35:05;;;;;;;0.50;0.50;;;;;;;6.15;95.41;98080.94;29395;251;63008;-60
2023/02/04 00:35:36;;;;;;;0.50;0.50;;;;;;;6.15;94.95;98097.13;29395;208;63009;-59
2023/02/04 00:36:08;;;;;;;0.60;0.60;;;;;;;6.14;94.95;98087.37;29395;202;63009;-69
2023/02/04 00:36:40;;;;;;;0.60;0.60;;;;;;;6.14;94.93;98082.00;29395;239;63005;-60
2023/02/04 00:37:11;;;;;;;0.55;0.55;;;;;;;6.14;94.82;98096.28;29395;283;63009;-62
2023/02/04 00:37:42;;;;;;;0.60;0.60;;;;;;;6.15;94.93;98097.13;29394;202;64009;-61
2023/02/04 00:38:14;;;;;;;0.80;0.80;;;;;;;6.15;94.63;98097.13;29395;196;63009;-59
2023/02/04 00:38:45;;;;;;;0.60;0.60;;;;;;;6.15;94.68;98097.13;29395;299;63005;-63
2023/02/04 00:39:16;;;;;;;1.25;1.25;;;;;;;6.16;94.48;98096.06;29395;221;63009;-58
2023/02/04 00:39:48;;;;;;;0.50;0.50;;;;;;;6.17;94.48;98105.78;29395;202;63004;-59
2023/02/04 00:40:19;;;;;;;0.88;0.88;;;;;;;6.17;94.52;98089.63;29395;211;63009;-57
2023/02/04 00:40:50;;;;;;;0.50;0.50;;;;;;;6.16;94.05;98088.78;29395;196;63004;-61
2023/02/04 00:41:21;;;;;;;0.50;0.50;;;;;;;6.16;94.00;98096.88;29395;214;63009;-66
2023/02/04 00:41:53;;;;;;;0.60;0.60;;;;;;;6.18;94.04;98093.94;29395;218;63010;-60
2023/02/04 00:42:24;;;;;;;0.60;0.60;;;;;;;6.18;93.63;98102.84;29395;250;63009;-58
2023/02/04 00:42:55;;;;;;;2.42;0.80;;;;;;;6.19;93.94;98100.97;29394;261;64009;-61
2023/02/04 00:43:26;;;;;;;1.15;1.15;;;;;;;6.19;93.86;98087.50;29395;227;63009;-60
2023/02/04 00:43:57;;;;;;;0.50;0.50;;;;;;;6.18;93.35;98091.25;29395;233;63005;-58
2023/02/04 00:44:29;;;;;;;0.88;0.88;;;;;;;6.19;93.88;98093.72;29395;200;63009;-67
2023/02/04 00:45:00;;;;;;;0.50;0.50;;;;;;;6.17;93.73;98092.31;29395;265;63005;-61
2023/02/04 00:45:31;;;;;;;0.60;0.60;;;;;;;6.18;93.96;98107.44;29395;204;63009;-58
2023/02/04 00:46:04;;;;;;;0.90;0.90;;;;;;;6.19;93.66;98098.28;29395;263;63005;-61
2023/02/04 00:46:35;;;;;;;0.55;0.55;;;;;;;6.20;93.49;98099.94;29395;202;63009;-61
2023/02/04 00:47:07;;;;;;;0.60;0.60;;;;;;;6.21;93.64;98098.88;29395;203;63004;-59
2023/02/04 00:47:38;;;;;;;0.60;0.60;;;;;;;6.21;93.81;98101.56;29395;206;63009;-61
2023/02/04 00:48:10;;;;;;;0.70;0.70;;;;;;;6.20;93.59;98099.94;29394;262;64009;-57
2023/02/04 00:48:41;;;;;;;0.70;0.70;;;;;;;6.21;93.55;98102.38;29395;265;63009;-60
2023/02/04 00:49:12;;;;;;;0.50;0.50;;;;;;;6.21;93.70;98101.56;29395;312;63004;-59
2023/02/04 00:49:44;;;;;;;0.50;0.50;;;;;;;6.20;93.51;98099.94;29395;206;63008;-61
2023/02/04 00:50:17;;;;;;;0.50;0.50;;;;;;;6.20;93.88;98100.75;29394;210;64009;-59
2023/02/04 00:50:48;;;;;;;0.80;0.80;;;;;;;6.21;93.56;98102.38;29395;297;63009;-57
2023/02/04 00:51:22;;;;;;;0.60;0.60;;;;;;;6.20;93.88;98102.63;29395;214;63005;-58
2023/02/04 00:51:58;;;;;;;1.35;1.00;;;;;;;6.21;93.70;98107.78;29395;290;63009;-60
2023/02/04 00:52:29;;;;;;;0.70;0.70;;;;;;;6.21;94.10;98109.66;29395;260;63005;-58
2023/02/04 00:53:00;;;;;;;0.82;0.82;;;;;;;6.20;94.07;98108.00;29394;213;64009;-55
2023/02/04 00:53:32;;;;;;;0.57;0.57;;;;;;;6.20;94.04;98105.31;29395;211;63005;-60
2023/02/04 00:54:05;;;;;;;0.50;0.50;;;;;;;6.20;93.71;98102.63;29395;211;63009;-57
2023/02/04 00:54:37;;;;;;;0.60;0.60;;;;;;;6.20;93.82;98102.63;29395;228;63004;-58
2023/02/04 00:55:11;;;;;;;0.68;0.68;;;;;;;6.21;93.98;98098.88;29395;246;63009;-56
2023/02/04 00:55:42;;;;;;;0.50;0.50;;;;;;;6.20;94.19;98105.31;29394;202;64009;-60
2023/02/04 00:56:13;;;;;;;0.50;0.50;;;;;;;6.21;94.04;98106.97;29395;292;63009;-57
2023/02/04 00:56:47;;;;;;;0.60;0.60;;;;;;;6.21;94.30;98101.56;29395;326;63004;-57
2023/02/04 00:57:18;;;;;;;0.50;0.50;;;;;;;6.19;94.42;98103.69;29395;199;63008;-59
2023/02/04 00:57:50;;;;;;;0.50;0.50;;;;;;;6.20;94.29;98110.72;29395;219;63005;-58
2023/02/04 00:58:21;;;;;;;0.50;0.50;;;;;;;6.19;94.64;98103.69;29395;219;63009;-61
2023/02/04 00:58:52;;;;;;;1.25;1.25;;;;;;;6.19;94.67;98109.06;29395;255;63011;-62
2023/02/04 00:59:24;;;;;;;0.60;0.60;;;;;;;6.20;94.92;98108.00;29395;215;63009;-59
2023/02/04 00:59:55;;;;;;;0.60;0.60;;;;;;;6.20;94.60;98099.94;29395;207;63005;-60
2023/02/04 01:00:26;;;;;;;0.50;0.50;;;;;;;6.21;95.06;98106.97;29395;213;63013;-57
2023/02/04 01:00:58;;;;;;;0.73;0.73;;;;;;;6.20;94.86;98105.31;29394;209;64009;-59
2023/02/04 01:01:33;;;;;;;0.60;0.60;;;;;;;6.19;95.42;98103.69;29395;270;63009;-57
2023/02/04 01:02:04;;;;;;;0.50;0.50;;;;;;;6.19;95.11;98099.09;29395;206;63004;-57
2023/02/04 01:02:35;;;;;;;0.50;0.50;;;;;;;6.17;94.64;98105.78;29395;235;63004;-65
2023/02/04 01:03:11;;;;;;;0.50;0.50;;;;;;;6.17;94.93;98108.47;29395;218;63004;-60
2023/02/04 01:03:42;;;;;;;1.50;0.70;;;;;;;6.18;95.23;98107.44;29395;203;63009;-57
2023/02/04 01:04:13;;;;;;;0.68;0.68;;;;;;;6.18;95.25;98110.13;29395;294;63004;-60
2023/02/04 01:04:45;;;;;;;0.62;0.62;;;;;;;6.17;95.74;98106.59;29395;200;63008;-62
2023/02/04 01:05:16;;;;;;;0.50;0.50;;;;;;;6.17;95.37;98111.19;29395;211;63007;-57
2023/02/04 01:05:48;;;;;;;1.58;0.70;;;;;;;6.16;95.87;98114.91;29395;280;63009;-57
2023/02/04 01:06:19;;;;;;;0.52;0.52;;;;;;;6.16;96.16;98109.53;29394;208;64009;-63
2023/02/04 01:06:51;;;;;;;0.50;0.50;;;;;;;6.15;96.44;98113.28;29395;233;63009;-59
2023/02/04 01:07:22;;;;;;;0.60;0.60;;;;;;;6.15;96.32;98113.28;29395;202;63005;-58
2023/02/04 01:07:54;;;;;;;0.95;0.95;;;;;;;6.14;96.73;98100.88;29395;250;63021;-51
2023/02/04 01:08:25;;;;;;;0.60;0.60;;;;;;;6.13;96.74;98113.50;29394;216;64009;-64
2023/02/04 01:08:56;;;;;;;0.77;0.65;;;;;;;6.12;97.04;98116.44;29395;202;63017;-60
2023/02/04 01:09:28;;;;;;;0.60;0.60;;;;;;;6.10;97.13;98110.47;29395;201;63004;-62
2023/02/04 01:10:03;;;;;;;0.60;0.60;;;;;;;6.10;97.42;98115.84;29394;256;64013;-57
2023/02/04 01:10:35;;;;;;;0.65;0.65;;;;;;;6.10;97.62;98113.16;29395;262;63016;-61
2023/02/04 01:11:06;;;;;;;0.60;0.60;;;;;;;6.07;97.91;98116.31;29395;249;63009;-60
2023/02/04 01:11:38;;;;;;;0.50;0.50;;;;;;;6.07;97.78;98113.63;29395;295;63004;-62
2023/02/04 01:12:09;;;;;;;0.70;0.70;;;;;;;6.05;98.17;98114.69;29395;232;63008;-62
2023/02/04 01:12:40;;;;;;;0.50;0.50;;;;;;;6.05;98.32;98111.97;29395;214;63005;-62
2023/02/04 01:13:12;;;;;;;0.60;0.60;;;;;;;6.04;98.34;98117.59;29395;258;63009;-58
2023/02/04 01:13:43;;;;;;;0.60;0.60;;;;;;;6.05;98.63;98125.44;29395;224;63018;-58
2023/02/04 01:14:15;;;;;;;0.50;0.50;;;;;;;6.03;98.74;98111.41;29395;224;63009;-57
2023/02/04 01:14:46;;;;;;;0.50;0.50;;;;;;;6.03;98.75;98121.34;29395;250;63005;-59
2023/02/04 01:15:18;;;;;;;0.50;0.50;;;;;;;6.03;98.92;98118.66;29394;236;64013;-58
2023/02/04 01:15:49;;;;;;;0.50;0.50;;;;;;;6.03;99.03;98115.97;29395;197;63005;-60
2023/02/04 01:16:23;;;;;;;0.70;0.70;;;;;;;6.02;99.29;98119.72;29395;231;63016;-63
2023/02/04 01:16:54;;;;;;;0.50;0.50;;;;;;;6.02;99.09;98119.72;29395;205;63004;-57
2023/02/04 01:17:25;;;;;;;0.60;0.60;;;;;;;6.01;99.43;98118.06;29395;199;63009;-62
2023/02/04 01:17:58;;;;;;;0.55;0.55;;;;;;;6.00;99.42;98111.84;29395;261;63004;-56
2023/02/04 01:18:29;;;;;;;0.50;0.50;;;;;;;5.99;99.63;98115.59;29395;266;63009;-58
2023/02/04 01:19:01;;;;;;;0.50;0.50;;;;;;;5.99;99.58;98117.47;29395;253;63004;-55
2023/02/04 01:19:32;;;;;;;0.50;0.50;;;;;;;6.00;99.65;98116.44;29395;265;63008;-57
2023/02/04 01:20:07;;;;;;;0.50;0.50;;;;;;;5.97;99.49;98112.31;29395;227;63005;-57
2023/02/04 01:20:38;;;;;;;0.50;0.50;;;;;;;5.97;99.19;98106.13;29394;223;64014;-56
2023/02/04 01:21:09;;;;;;;2.55;2.35;;;;;;;5.97;99.46;98112.31;29395;227;63005;-57
2023/02/04 01:21:41;;;;;;;0.50;0.50;;;;;;;5.96;99.43;98099.91;29395;220;63009;-56
2023/02/04 01:22:13;;;;;;;0.50;0.50;;;;;;;5.94;99.85;98104.72;29395;216;63005;-61
2023/02/04 01:22:44;;;;;;;1.10;0.88;;;;;;;5.94;99.89;98093.94;29395;245;63009;-56
2023/02/04 01:23:15;;;;;;;0.50;0.50;;;;;;;5.94;99.59;98102.00;29395;205;63005;-57
2023/02/04 01:23:48;;;;;;;0.55;0.55;;;;;;;5.96;99.17;98104.47;29395;197;63009;-58
2023/02/04 01:24:20;;;;;;;0.60;0.60;;;;;;;5.94;99.00;98102.00;29395;294;63004;-63
2023/02/04 01:24:51;;;;;;;0.50;0.50;;;;;;;5.95;99.00;98106.34;29395;202;63009;-62
2023/02/04 01:25:26;;;;;;;0.73;0.73;;;;;;;5.95;99.03;98102.84;29395;205;63004;-64
2023/02/04 01:25:58;;;;;;;0.60;0.60;;;;;;;5.93;98.89;98089.59;29394;218;64013;-61
2023/02/04 01:26:30;;;;;;;0.50;0.50;;;;;;;5.93;98.86;98096.84;29395;198;63004;-59
2023/02/04 01:27:06;;;;;;;1.33;1.27;;;;;;;5.93;98.98;98105.75;29395;205;63008;-63
2023/02/04 01:27:38;;;;;;;0.50;0.50;;;;;;;5.92;98.52;98093.34;29395;252;63005;-59
2023/02/04 01:28:09;;;;;;;0.60;0.60;;;;;;;5.95;98.52;98106.34;29395;213;63009;-59
2023/02/04 01:28:40;;;;;;;0.85;0.77;;;;;;;5.95;97.84;98100.97;29395;219;63005;-57
2023/02/04 01:29:11;;;;;;;0.60;0.60;;;;;;;5.95;97.83;98102.84;29395;263;63009;-60
2023/02/04 01:29:42;;;;;;;0.80;0.80;;;;;;;5.94;97.71;98102.00;29395;224;63005;-62
2023/02/04 01:30:14;;;;;;;0.60;0.60;;;;;;;5.95;97.67;98108.22;29395;209;63009;-59
2023/02/04 01:30:46;;;;;;;0.50;0.50;;;;;;;5.95;97.72;98113.59;29395;312;63005;-56
2023/02/04 01:31:18;;;;;;;0.82;0.82;;;;;;;5.96;97.35;98115.25;29394;280;64013;-58
2023/02/04 01:31:49;;;;;;;0.50;0.50;;;;;;;5.96;97.40;98113.38;29395;227;63004;-57
2023/02/04 01:32:24;;;;;;;0.57;0.57;;;;;;;5.96;97.08;98115.25;29394;197;64013;-54
2023/02/04 01:32:55;;;;;;;0.50;0.50;;;;;;;5.95;97.00;98117.13;29395;220;63004;-57
2023/02/04 01:33:27;;;;;;;0.50;0.50;;;;;;;5.94;97.29;98118.19;29395;308;63009;-59
2023/02/04 01:34:00;;;;;;;0.73;0.73;;;;;;;5.95;97.18;98111.72;29395;204;63004;-55
2023/02/04 01:34:32;;;;;;;0.75;0.75;;;;;;;5.95;96.92;98127.91;29395;226;63008;-57
2023/02/04 01:35:04;;;;;;;0.50;0.50;;;;;;;5.96;96.57;98120.63;29395;204;63004;-63
2023/02/04 01:35:35;;;;;;;0.60;0.60;;;;;;;5.96;96.82;98126.84;29395;197;63009;-58
2023/02/04 01:36:07;;;;;;;0.50;0.50;;;;;;;5.96;96.65;98131.41;29395;224;63005;-57
2023/02/04 01:36:38;;;;;;;0.70;0.70;;;;;;;5.94;96.91;98128.94;29395;216;63009;-59
2023/02/04 01:37:12;;;;;;;0.70;0.70;;;;;;;5.93;96.66;98121.91;29395;212;63005;-54
2023/02/04 01:37:43;;;;;;;0.50;0.50;;;;;;;5.94;97.01;98131.66;29394;222;64013;-60
2023/02/04 01:38:14;;;;;;;0.50;0.50;;;;;;;5.94;96.92;98134.34;29395;217;63005;-55
2023/02/04 01:38:45;;;;;;;0.50;0.50;;;;;;;5.94;97.25;98130.81;29395;294;63009;-57
2023/02/04 01:39:16;;;;;;;1.42;1.37;;;;;;;5.93;97.17;98137.25;29395;232;63009;-55
2023/02/04 01:39:48;;;;;;;0.60;0.60;;;;;;;5.92;97.35;98136.44;29395;222;63019;-56
2023/02/04 01:40:19;;;;;;;0.50;0.50;;;;;;;5.91;97.78;98144.75;29394;290;64009;-57
2023/02/04 01:40:53;;;;;;;0.60;0.60;;;;;;;5.90;97.32;98132.34;29395;207;63009;-58
2023/02/04 01:41:25;;;;;;;0.50;0.50;;;;;;;5.88;97.48;98124.50;29395;237;63004;-62
2023/02/04 01:41:56;;;;;;;0.50;0.50;;;;;;;5.88;97.94;98135.25;29395;228;63022;-59
2023/02/04 01:42:28;;;;;;;0.60;0.60;;;;;;;5.88;97.78;98129.06;29395;225;63005;-53
2023/02/04 01:43:01;;;;;;;0.77;0.77;;;;;;;5.87;97.44;98133.63;29395;308;63017;-61
2023/02/04 01:43:33;;;;;;;0.60;0.60;;;;;;;5.85;97.55;98141.13;29395;205;63011;-55
2023/02/04 01:44:09;;;;;;;0.50;0.50;;;;;;;5.84;97.56;98125.19;29395;240;63018;-62
2023/02/04 01:44:41;;;;;;;0.50;0.50;;;;;;;5.83;97.09;98137.00;29395;252;63005;-56
2023/02/04 01:45:13;;;;;;;0.50;0.50;;;;;;;5.81;97.44;98145.31;29395;253;63028;-54
2023/02/04 01:45:45;;;;;;;0.60;0.60;;;;;;;5.80;97.41;98132.91;29394;304;64009;-62
2023/02/04 01:46:16;;;;;;;0.55;0.55;;;;;;;5.78;97.50;98140.38;29395;216;63009;-60
2023/02/04 01:46:48;;;;;;;0.50;0.50;;;;;;;5.76;96.91;98137.09;29395;349;63004;-62
2023/02/04 01:47:20;;;;;;;1.98;1.87;;;;;;;5.76;96.70;98141.66;29395;207;63009;-54
2023/02/04 01:47:52;;;;;;;0.70;0.70;;;;;;;5.75;95.98;98137.34;29395;199;63010;-58
2023/02/04 01:48:24;;;;;;;0.60;0.60;;;;;;;5.72;95.77;98135.94;29394;244;64013;-59
2023/02/04 01:48:55;;;;;;;0.82;0.82;;;;;;;5.71;95.90;98134.28;29395;219;63004;-62
2023/02/04 01:49:28;;;;;;;0.60;0.60;;;;;;;5.71;96.74;98139.66;29395;219;63009;-69
2023/02/04 01:50:00;;;;;;;0.60;0.60;;;;;;;5.72;96.64;98144.81;29395;252;63005;-55
2023/02/04 01:50:32;;;;;;;0.50;0.50;;;;;;;5.72;96.86;98141.31;29395;216;63009;-53
2023/02/04 01:51:13;;;;;;;0.70;0.70;;;;;;;5.70;96.78;98132.66;29395;211;63005;-58
2023/02/04 01:51:44;;;;;;;0.62;0.62;;;;;;;5.70;97.11;98132.66;29416;255;64013;-64
2023/02/04 01:52:16;;;;;;;0.60;0.60;;;;;;;5.69;97.24;98137.22;29395;212;63005;-59
2023/02/04 01:52:48;;;;;;;0.50;0.50;;;;;;;5.68;97.47;98130.19;29395;220;63009;-57
2023/02/04 01:53:25;;;;;;;0.80;0.80;;;;;;;5.67;97.28;98135.78;29395;220;63005;-61
2023/02/04 01:54:01;;;;;;;0.80;0.80;;;;;;;5.67;97.02;98130.41;29395;204;63009;-54
2023/02/04 01:54:32;;;;;;;0.50;0.50;;;;;;;5.65;96.64;98137.91;29394;215;64009;-63
2023/02/04 01:55:10;;;;;;;0.60;0.60;;;;;;;5.63;96.40;98127.34;29395;259;63009;-63
2023/02/04 01:55:41;;;;;;;0.80;0.80;;;;;;;5.62;96.74;98124.88;29395;231;63004;-56
2023/02/04 01:56:22;;;;;;;0.50;0.50;;;;;;;5.62;97.09;98128.41;29395;222;63008;-62
2023/02/04 01:56:54;;;;;;;0.53;0.53;;;;;;;5.62;96.83;98135.66;29417;203;63004;-57
2023/02/04 01:57:26;;;;;;;0.70;0.70;;;;;;;5.61;97.06;98139.41;29373;290;63009;-57
2023/02/04 01:57:57;;;;;;;0.60;0.60;;;;;;;5.61;96.80;98132.16;29395;223;63005;-59
2023/02/04 01:58:33;;;;;;;0.93;0.90;;;;;;;5.60;97.03;98135.06;29395;202;63009;-55
2023/02/04 01:59:13;;;;;;;0.50;0.50;;;;;;;5.60;96.83;98127.00;29395;221;63005;-63
2023/02/04 01:59:47;;;;;;;0.60;0.60;;;;;;;5.59;96.96;98119.97;29416;228;64013;-65
2023/02/04 02:00:24;;;;;;;0.50;0.50;;;;;;;5.58;96.75;98135.31;29395;246;63005;-57
2023/02/04 02:00:55;;;;;;;0.60;0.60;;;;;;;5.59;96.21;98141.50;29395;222;63009;-59
2023/02/04 02:01:41;;;;;;;0.60;0.60;;;;;;;5.57;95.27;98122.88;29395;248;63004;-59
2023/02/04 02:02:40;;;;;;;1.77;1.70;;;;;;;5.55;94.87;98135.75;29395;245;63009;-60
2023/02/04 02:03:12;;;;;;;0.60;0.60;;;;;;;5.54;94.48;98133.31;29395;245;63015;-62
2023/02/04 02:03:43;;;;;;;1.15;1.15;;;;;;;5.54;94.24;98144.09;29395;210;63004;-66
2023/02/04 02:04:32;;;;;;;0.80;0.80;;;;;;;5.52;94.13;98146.19;29394;278;64013;-57
2023/02/04 02:05:07;;;;;;;0.50;0.50;;;;;;;5.52;94.24;98132.72;29395;203;63005;-57
2023/02/04 02:05:45;;;;;;;0.50;0.50;;;;;;;5.52;93.99;98146.19;29395;211;63010;-59
2023/02/04 02:06:18;;;;;;;0.50;0.50;;;;;;;5.49;93.26;98142.09;29395;216;63005;-55
2023/02/04 02:06:54;;;;;;;0.50;0.50;;;;;;;5.50;93.25;98142.91;29395;272;63014;-60
2023/02/04 02:07:25;;;;;;;0.50;0.50;;;;;;;5.51;93.67;98141.84;29394;220;64009;-57
2023/02/04 02:07:59;;;;;;;0.60;0.60;;;;;;;5.50;94.05;98143.72;29395;197;63009;-63
2023/02/04 02:08:30;;;;;;;0.60;0.60;;;;;;;5.49;93.56;98142.09;29395;237;63005;-61
2023/02/04 02:09:02;;;;;;;0.50;0.50;;;;;;;5.48;92.70;98148.53;29395;375;63009;-55
2023/02/04 02:09:34;;;;;;;0.90;0.90;;;;;;;5.46;92.42;98147.09;29395;199;63004;-66
2023/02/04 02:10:11;;;;;;;0.60;0.60;;;;;;;5.47;92.09;98154.94;29395;222;63009;-57
2023/02/04 02:10:45;;;;;;;0.60;0.60;;;;;;;5.45;92.20;98143.59;29395;225;63004;-56
2023/02/04 02:11:17;;;;;;;3.20;0.85;;;;;;;5.44;91.84;98143.81;29394;232;64013;-60
2023/02/04 02:11:52;;;;;;;0.60;0.60;;;;;;;5.45;91.92;98140.09;29395;197;63004;-68
2023/02/04 02:12:23;;;;;;;0.50;0.50;;;;;;;5.44;91.87;98150.03;29395;292;63009;-62
2023/02/04 02:12:56;;;;;;;0.70;0.70;;;;;;;5.46;91.84;98149.78;29395;210;63005;-58
2023/02/04 02:13:28;;;;;;;0.50;0.50;;;;;;;5.44;91.79;98144.62;29395;213;63009;-61
2023/02/04 02:14:00;;;;;;;0.60;0.60;;;;;;;5.43;91.30;98142.19;29394;204;64009;-59
2023/02/04 02:14:31;;;;;;;0.50;0.50;;;;;;;5.41;91.69;98150.47;29395;228;63009;-58
2023/02/04 02:15:03;;;;;;;0.50;0.50;;;;;;;5.42;92.13;98148.63;29395;222;63005;-60
2023/02/04 02:15:39;;;;;;;0.80;0.80;;;;;;;5.43;91.92;98148.37;29395;202;63009;-59
2023/02/04 02:16:10;;;;;;;0.50;0.50;;;;;;;5.41;91.63;98150.47;29395;212;63016;-58
2023/02/04 02:16:41;;;;;;;0.50;0.50;;;;;;;5.41;91.93;98155.03;29394;197;64013;-60
2023/02/04 02:17:13;;;;;;;0.50;0.50;;;;;;;5.38;91.89;98157.13;29395;228;63004;-64
2023/02/04 02:17:45;;;;;;;0.60;0.60;;;;;;;5.35;92.18;98154.91;29395;209;63009;-63
2023/02/04 02:18:16;;;;;;;2.22;2.05;;;;;;;5.35;92.66;98157.59;29395;203;63008;-58
2023/02/04 02:18:47;;;;;;;0.60;0.60;;;;;;;5.35;92.58;98157.59;29395;235;63008;-56
2023/02/04 02:19:31;;;;;;;0.60;0.60;;;;;;;5.34;92.40;98164.03;29395;199;63017;-53
2023/02/04 02:20:05;;;;;;;0.60;0.60;;;;;;;5.34;92.41;98164.03;29395;259;63009;-57
2023/02/04 02:20:37;;;;;;;0.60;0.60;;;;;;;5.34;93.03;98161.34;29395;254;63012;-62
2023/02/04 02:21:11;;;;;;;0.60;0.60;;;;;;;5.34;93.15;98155.94;29394;236;64014;-58
2023/02/04 02:21:52;;;;;;;0.50;0.50;;;;;;;5.32;93.09;98160.75;29395;216;63005;-61
2023/02/04 02:22:32;;;;;;;0.50;0.50;;;;;;;5.31;93.00;98156.41;29395;205;63009;-58
2023/02/04 02:23:28;;;;;;;0.60;0.60;;;;;;;5.29;93.54;98158.50;29416;251;63998;-57
2023/02/04 02:24:02;;;;;;;0.65;0.65;;;;;;;5.27;93.98;98165.97;29394;247;64013;-59
2023/02/04 02:24:34;;;;;;;0.60;0.60;;;;;;;5.25;93.50;98157.31;29395;210;63004;-59
2023/02/04 02:25:16;;;;;;;0.60;0.60;;;;;;;5.28;93.59;98167.62;29395;267;63009;-59
2023/02/04 02:25:48;;;;;;;0.60;0.60;;;;;;;5.26;93.50;98169.72;29395;209;63004;-58
2023/02/04 02:26:22;;;;;;;0.60;0.60;;;;;;;5.25;93.36;98162.69;29395;220;63008;-57
2023/02/04 02:26:55;;;;;;;0.55;0.55;;;;;;;5.25;93.81;98168.06;29395;353;63004;-57
2023/02/04 02:27:28;;;;;;;0.70;0.70;;;;;;;5.24;93.78;98171.00;29395;233;63023;-61
2023/02/04 02:28:00;;;;;;;0.60;0.60;;;;;;;5.23;94.32;98166.66;29395;222;63005;-63
2023/02/04 02:28:31;;;;;;;0.60;0.60;;;;;;;5.21;94.16;98172.25;29395;207;63009;-58
2023/02/04 02:29:03;;;;;;;0.50;0.50;;;;;;;5.18;94.53;98162.00;29394;340;64009;-58
2023/02/04 02:29:37;;;;;;;0.50;0.50;;;;;;;5.20;94.47;98173.31;29395;297;63009;-62
2023/02/04 02:30:11;;;;;;;0.60;0.60;;;;;;;5.20;94.75;98173.31;29395;235;63005;-60
2023/02/04 02:30:44;;;;;;;0.50;0.50;;;;;;;5.21;93.87;98174.97;29395;211;63009;-58
2023/02/04 02:31:19;;;;;;;0.50;0.50;;;;;;;5.19;93.90;98170.88;29395;236;63004;-61
2023/02/04 02:31:51;;;;;;;0.68;0.68;;;;;;;5.17;93.98;98181.88;29395;300;63009;-60
2023/02/04 02:32:22;;;;;;;0.60;0.60;;;;;;;5.19;94.19;98184.34;29394;223;64004;-58
2023/02/04 02:32:55;;;;;;;0.73;0.73;;;;;;;5.13;94.27;98164.53;29395;223;63009;-55
2023/02/04 02:33:26;;;;;;;0.50;0.50;;;;;;;5.15;94.08;98178.59;29395;248;63004;-55
2023/02/04 02:33:58;;;;;;;0.60;0.60;;;;;;;5.14;93.82;98182.31;29395;214;63008;-58
2023/02/04 02:34:30;;;;;;;0.50;0.50;;;;;;;5.13;94.39;98175.28;29394;238;64008;-59
2023/02/04 02:35:02;;;;;;;0.73;0.73;;;;;;;5.14;94.86;98187.69;29395;205;63009;-54
2023/02/04 02:35:34;;;;;;;0.50;0.50;;;;;;;5.13;94.80;98186.06;29394;197;64001;-59
2023/02/04 02:36:06;;;;;;;1.05;0.70;;;;;;;5.11;94.98;98187.31;29395;212;63009;-61
2023/02/04 02:36:37;;;;;;;0.50;0.50;;;;;;;5.11;95.15;98188.16;29395;197;63005;-56
2023/02/04 02:37:09;;;;;;;0.50;0.50;;;;;;;5.11;95.41;98192.72;29395;235;63009;-59